18ème Rallye National Terre de Langres
Championnat de France des Rallyes sur Terre
1 4 MAURIN Julien/URAL Olivier Citroën DS3 WRC A 8W 35:47,3 1
2 5 TRON Noel/OBRECHT Justine Citroën DS3 WRC A 8W 35:55,5 +00:08,2 +00:08,2 1
3 2 DURBEC Thibault/RENUCCI Jacques-Julien Citroën DS3 WRC A 8W 36:30,3 +00:43,0 +00:34,8 1
4 3 CUOQ Jean-Marie/GRANDEMANGE Marielle Citroën C4 WRC FA 8W 36:53,9 +01:06,6 +00:23,6 1
5 9 AMOURETTE Marc/MARIE Gwenola Citroën DS3 R5 R 5 37:19,3 +01:32,0 +00:25,4
6 7 FERAUD Cyrille/DUCHEMIN Aymeric Citroën C4 WRC FA 8W 37:56,9 +02:09,6 +00:37,6 1
7 1 BERFA Jordan/AUGUSTIN Damien HUYNDAI i20 R5 R 5 38:26,9 +02:39,6 +00:30,0 1
8 8 MORDACQ Arnaud/RATIER Marie-Noelle Mitsubishi Lancer Evo9 FN 4 39:02,4 +03:15,1 +00:35,5 1
9 14 CECCHI Philippe/LETOURNEAU Lara Citroën DS3 R5 R 5 40:57,8 +05:10,5 +01:55,4
10 16 PELUTTIERO Thibaud/REICHENECKER Josh Mitsubishi Lancer EvoX R 4 41:36,5 +05:49,2 +00:38,7 1
11 19 CHAYNES Gary/TRIBOUT Christian Mitsubishi Lancer Evo6 FA 8 41:48,3 +06:01,0 +00:11,8 1
12 23 BENIER Thomas/PRASSE Cédric Subaru Impreza WRX N 4 42:12,4 +06:25,1 +00:24,1 1
13 25 MOREL Jean-Luc/GIDEL Philippe Subaru Impreza WRX FN 4 42:12,9 +06:25,6 +00:00,5
14 39 MASCLAUX Arnaud/MOULIN Alexandre Renault Clio Ragnotti F2 14 42:12,9 +06:25,6 1 2
15 31 COLNEY Thierry/FORTMANN Patrick Citroën DS3 R3 R 3 42:19,5 +06:32,2 +00:06,6 1 2
16 26 DELOY David/OGIER Cédric Mitsubishi Lancer EvoX N 4 43:00,0 +07:12,7 +00:40,5
17 30 ASTIER Loïc/DECLERCK Loïc Citroën DS3 R3 R 3 43:01,3 +07:14,0 +00:01,3 1 2
18 18 SALIN Daniel/SALIN Brigitte Subaru Impreza WRX R 4 43:16,8 +07:29,5 +00:15,5
19 42 FRANCESCHI Jean-Baptiste/COURBON Romain Ford Fiesta R2J R 2 43:24,3 +07:37,0 +00:07,5 4
20 54 MARGAILLAN Hugo/POUJOL Sébastien Ford Fiesta R2J R 2 43:26,6 +07:39,3 +00:02,3 4
21 62 CHALAL Theo/LE FLOCH Franck Ford Fiesta R2J R 2 43:29,9 +07:42,6 +00:03,3 4
22 20 GAIDOZ Hervé/RICHARD François Subaru Impreza WRX FA 8 43:39,2 +07:51,9 +00:09,3 1
23 57 CARTIER Victor/CRAEN Fabien Ford Fiesta R2J R 2 43:40,7 +07:53,4 +00:01,5 4
24 48 JOUINES Jean/CHABBERT Martin Ford Fiesta R2J R 2 43:47,3 +08:00,0 +00:06,6 4
25 66 CACHOD Sylvain/POURCELOT Aurélien Citroën C2 R2 R 2 43:47,8 +08:00,5 +00:00,5
26 38 JULIA David/AUBERTIN Ludovic Peugeot 206 Rc F2 14 43:53,7 +08:06,4 +00:05,9 1 2
27 12 BESSON Jean-Pascal/ROISSAC Patrice Skoda Fabia R5 R 5 44:04,7 +08:17,4 +00:11,0 1
28 43 DI FANTE Romain/TEMPIER Romain Ford Fiesta R2J R 2 44:05,3 +08:18,0 +00:00,6 4
29 37 GUINCHARD Emmanuel/CHATELAIN Mickaël Peugeot 207 Rc R 3 44:13,8 +08:26,5 +00:08,5
30 61 CORNU Alexandre/FASSOLA Thibault Ford Fiesta R2J R 2 44:14,4 +08:27,1 +00:00,6 4
31 40 VITAL Jean-Pierre/YVERNAULT Eric Citroën Saxo VTS F2 13 44:22,7 +08:35,4 +00:08,3 1 2
32 45 FOURMAUX Adrien/FOURMAUX Maxime Ford Fiesta R2J R 2 44:27,6 +08:40,3 +00:04,9 4
33 24 MARTI Christian/LAVIALE Jean-Marc Mitsubishi Lancer Evo9 FN 4 44:30,5 +08:43,2 +00:02,9 1
34 63 MOLLARD Alexandre/EYMIN Nicolas Peugeot 208 VTI R 2 44:39,9 +08:52,6 +00:09,4
35 35 FRANCE Julien/MAZARGUIL Philippe Citroën DS3 R3 R 3 44:44,2 +08:56,9 +00:04,3
36 49 GOUPIL Jocerand/CIANFARANI Anthoni Ford Fiesta R2J R 2 44:51,4 +09:04,1 +00:07,2 4
37 41 SABATIER Florent/SANTIAGO Thomas Peugeot 106 S16 FA 6 45:10,0 +09:22,7 +00:18,6 1 2
38 51 MOUSTIN Doriann/DESNOYER Alexia Ford Fiesta R2J R 2 45:11,2 +09:23,9 +00:01,2 4
39 64 GUIBERT Jean-Christophe/GRACIAL Laurent Ford Fiesta R2 R 2 45:16,0 +09:28,7 +00:04,8
40 47 CHANTRIAUX Audric/PEREZ Laëtitia Ford Fiesta R2J R 2 45:22,1 +09:34,8 +00:06,1 4
41 44 BOULENC Benjamin/DOS REIS Sébastien Ford Fiesta R2J R 2 45:24,9 +09:37,6 +00:02,8 4
42 65 FRANCESCHI Mathieu/BELHACENE Matthieu Citroën C2 R2 R 2 45:35,3 +09:48,0 +00:10,4
43 55 PONTAL Julien/BARRAL Florian Ford Fiesta R2J R 2 45:42,1 +09:54,8 +00:06,8 4
44 52 GIUSTI Igor/DINI Gilbert Ford Fiesta R2J R 2 45:48,8 +10:01,5 +00:06,7 4
45 69 QUARROZ Damien/VOLPI Cécile Citroën Saxo T4 FA 6K 46:03,4 +10:16,1 +00:14,6
46 53 GANDELLI David/BIAGETTI Loan Ford Fiesta R2J R 2 46:12,3 +10:25,0 +00:08,9 4
47 85 GERMAIN Alex/POIROT Edgard Peugeot 205 GTI F2 13 46:18,3 +10:31,0 +00:06,0
48 78 RAYNAUD Gabriel/JULIEN William Seat Ibiza GTI F2 14 46:19,2 +10:31,9 +00:00,9 1 2
49 32 JOUINES Rémi/MAHEO Arnaud Peugeot 207 Rc R 3 46:30,8 +10:43,5 +00:11,6 1 2
50 75 LAGIER Fabrice/DUPONT Romuald Peugeot 306 S16 FA 7 46:34,3 +10:47,0 +00:03,5
51 68 PAILLER Julien/HENQUINET Sébastien Citroën Saxo T4 FA 6K 46:45,7 +10:58,4 +00:11,4
52 88 BRISSON Eddy/MASSON Pascal Suzuki Swift Sport FN 2 46:45,7 +10:58,4
53 74 TATIN Xavier/BAUMET Eddie Peugeot 306 S16 FA 7 46:55,2 +11:07,9 +00:09,5
54 27 PRIOLO Laurent/PRIOLO Cindy Mitsubishi Lancer Evo9 FN 4 47:11,7 +11:24,4 +00:16,5
55 71 COLOMBE Geoffroy/FABREGUE Régis Peugeot 206 XS FA 6K 47:22,9 +11:35,6 +00:11,2
56 84 FOURNIER Nicolas/VATTEAU Kévin Peugeot 206 XS F2 13 47:32,9 +11:45,6 +00:10,0 1 2
57 29 DAZY Jean-Pierre/LOIZEAUX Didier Renault Clio R3 R 3 47:33,9 +11:46,6 +00:01,0 1 2
58 50 CURIOZ Benjamin/BEERENS Pierre Ford Fiesta R2J R 2 47:40,3 +11:53,0 +00:06,4 4
59 33 BOUCHET Guillaume/BLAMPEY Fabien Peugeot 207 Rc R 3 47:56,5 +12:09,2 +00:16,2
60 94 VUITTENEZ Victorien/COTE COLISSON Maxime Peugeot 106 XSI FN 1 48:21,5 +12:34,2 +00:25,0
61 82 DUCLAUX Julien/AMALBERTI Cédric Peugeot 206 Rc FN 3 48:37,2 +12:49,9 +00:15,7
62 36 SPART Patrick/CATTIN Charline Peugeot 207 Rc R 3 48:52,3 +13:05,0 +00:15,1
63 56 VIAROUGE David/BENZAL Aurélien Ford Fiesta R2J R 2 48:52,7 +13:05,4 +00:00,4 4
64 87 MOUGIN Jules/ROUMETTE Clemence Peugeot 106 Rallye FA 5 49:55,0 +14:07,7 +01:02,3
65 70 BRENIAUX Sébastien/JACQUES Anthony Peugeot 206 XS FA 6K 50:16,9 +14:29,6 +00:21,9
66 60 EMANUEL Maxence/DALMASSO Pauline Ford Fiesta R2J R 2 50:50,9 +15:03,6 +00:34,0 4
67 80 REYNAUD Yvan/SCHWARTZ Eric Opel Manta GTE F2 14 50:57,4 +15:10,1 +00:06,5
68 58 VIANO Allison/CHOL Cecilia Ford Fiesta R2J R 2 51:10,0 +15:22,7 +00:12,6 4
69 81 VIDAL Marc/MONTARON Loïc Peugeot 309 GTI 16S F2 14 51:53,4 +16:06,1 +00:43,4
70 89 DOLGOPYATOFF Damien/PERRIN Christelle Suzuki Swift Sport FN 2 52:37,6 +16:50,3 +00:44,2
71 77 STUDER Maude/STUDER Sébastien Peugeot 206 GT FA 7 52:41,5 +16:54,2 +00:03,9
72 79 CLEMENT Frédéric/COSTES François Peugeot 206 Rc F2 14 52:54,4 +17:07,1 +00:12,9 1 2
73 72 FETY Fabrice/ROLLION Thomas Peugeot 206 XS FA 6K 53:57,4 +18:10,1 +01:03,0
74 22 GLEY Jean-Pierre/JEUDY Nicolas B.M.W. 325 iX FA 8 53:58,2 +18:10,9 +00:00,8
75 95 FAUR Yoann/MASSON Kévin Peugeot 205 Rallye FN 1 54:30,7 +18:43,4 +00:32,5
76 86 MAUVAIS Michel/PY Jean-Michel Peugeot 205 Rallye FA 5 55:59,6 +20:12,3 +01:28,9
77 91 DI PAOLO Alain/MORILLON Frederika Peugeot 106 S16 FN 2 58:09,9 +22:22,6 +02:10,3
78 76 VERRY Vanessa/OUVRY Eleonore Peugeot 206 Rc FA 7 58:33,2 +22:45,9 +00:23,3
79 92 FRANCOIS Léa/FRANCOIS Solene Peugeot 106 S16 FN 2 58:41,1 +22:53,8 +00:07,9
80 93 BRAQUET Jean-Baptiste/BRAQUET Elyse Peugeot 106 XSI FN 1 58:58,9 +23:11,6 +00:17,8
81 73 SOUFFEZ Frédéric/PRUVOST Astrid Peugeot 206 Rc FA 7 1:00:41,3 +24:54,0 +01:42,4 1 2
Clt Equipage Voiture Gr/Cl Temps Ecart 1er Ecart préc. Catégories
Commentaires: © PatricK Soft  
(Temps forfaitaires=couleur bleue)
Classés:81

Epreuve: Groupe: Catégorie:

 
Retour
Classement après ES5-Saints-Geosmes - Noidant-le-Rocheux (10.000 km)